Time;durP1;ratioP1;P1;durP2;ratioP2;P2;SDS_P1;SDS_P2;PMS_P1;PMS_P2;Temp;Humidity;BMP_temperature;BMP_pressure;BME280_temperature;BME280_humidity;BME280_pressure;Samples;Min_cycle;Max_cycle;Signal;HPM_P1;HPM_P2
2024/01/19 00:04:57;;;;;;;49.78;38.92;;;;;;;;;;10091815;28;20101;-64
2024/01/19 00:09:55;;;;;;;55.17;42.20;;;;;;;;;;10090896;28;20066;-64
2024/01/19 00:14:54;;;;;;;41.75;35.00;;;;;;;;;;10092247;28;20083;-64
2024/01/19 00:19:52;;;;;;;42.63;34.30;;;;;;;;;;10097068;28;20511;-64
2024/01/19 00:24:53;;;;;;;40.35;32.95;;;;;;;;;;10095681;28;20074;-64
2024/01/19 00:29:52;;;;;;;43.38;34.83;;;;;;;;;;10098362;28;20078;-64
2024/01/19 00:34:50;;;;;;;41.40;32.90;;;;;;;;;;10100604;28;20071;-64
2024/01/19 00:39:48;;;;;;;40.83;32.22;;;;;;;;;;10099248;28;20097;-62
2024/01/19 00:44:48;;;;;;;38.17;33.08;;;;;;;;;;10098727;28;20109;-63
2024/01/19 00:49:46;;;;;;;42.67;32.17;;;;;;;;;;10098300;28;20082;-62
2024/01/19 00:54:45;;;;;;;37.92;31.02;;;;;;;;;;10098424;28;20520;-63
2024/01/19 00:59:43;;;;;;;39.72;32.72;;;;;;;;;;10098123;28;20070;-63
2024/01/19 01:04:42;;;;;;;39.63;34.20;;;;;;;;;;10097026;28;20067;-63
2024/01/19 01:09:41;;;;;;;38.25;31.25;;;;;;;;;;10098652;28;20070;-63
2024/01/19 01:14:39;;;;;;;37.10;32.25;;;;;;;;;;10097070;28;20067;-64
2024/01/19 01:19:37;;;;;;;42.45;34.22;;;;;;;;;;10093033;28;20146;-64
2024/01/19 01:24:37;;;;;;;39.22;34.85;;;;;;;;;;10099859;28;20074;-63
2024/01/19 01:29:35;;;;;;;38.60;32.38;;;;;;;;;;10096163;28;20487;-63
2024/01/19 01:34:33;;;;;;;40.97;32.55;;;;;;;;;;10097149;28;20073;-63
2024/01/19 01:39:31;;;;;;;43.25;33.45;;;;;;;;;;10096467;28;20089;-64
2024/01/19 01:44:31;;;;;;;38.22;32.38;;;;;;;;;;10096116;28;20090;-63
2024/01/19 01:49:29;;;;;;;42.83;32.85;;;;;;;;;;10096406;28;20082;-63
2024/01/19 01:54:28;;;;;;;36.80;30.85;;;;;;;;;;10097079;28;20067;-64
2024/01/19 01:59:27;;;;;;;37.67;32.22;;;;;;;;;;10096575;28;20075;-64
2024/01/19 02:04:28;;;;;;;40.03;33.47;;;;;;;;;;10094811;28;20077;-64
2024/01/19 02:09:26;;;;;;;42.75;33.22;;;;;;;;;;10091492;28;20067;-64
2024/01/19 02:14:24;;;;;;;31.63;27.65;;;;;;;;;;10095484;28;20511;-64
2024/01/19 02:19:23;;;;;;;40.75;32.25;;;;;;;;;;10092669;28;20082;-63
2024/01/19 02:24:22;;;;;;;42.20;33.80;;;;;;;;;;10095464;28;20081;-65
2024/01/19 02:29:21;;;;;;;37.70;32.17;;;;;;;;;;10095160;28;20081;-63
2024/01/19 02:34:19;;;;;;;33.42;28.58;;;;;;;;;;10095246;28;20070;-63
2024/01/19 02:39:17;;;;;;;41.40;32.83;;;;;;;;;;10094780;28;20528;-64
2024/01/19 02:44:17;;;;;;;44.15;34.38;;;;;;;;;;10094494;28;20086;-63
2024/01/19 02:49:15;;;;;;;36.30;30.38;;;;;;;;;;10094267;28;20146;-64
2024/01/19 02:54:14;;;;;;;33.53;29.58;;;;;;;;;;10094371;28;20082;-63
2024/01/19 02:59:12;;;;;;;40.72;34.42;;;;;;;;;;10094984;28;20086;-64
2024/01/19 03:04:13;;;;;;;38.63;31.08;;;;;;;;;;10093107;28;20078;-64
2024/01/19 03:09:11;;;;;;;37.80;30.38;;;;;;;;;;10093814;28;20081;-63
2024/01/19 03:14:09;;;;;;;39.75;32.70;;;;;;;;;;10094195;28;20062;-63
2024/01/19 03:19:07;;;;;;;31.70;27.33;;;;;;;;;;10088220;28;20078;-63
2024/01/19 03:24:07;;;;;;;36.75;29.80;;;;;;;;;;10092853;28;20078;-63
2024/01/19 03:29:05;;;;;;;36.70;30.25;;;;;;;;;;10094868;28;20078;-63
2024/01/19 03:34:03;;;;;;;33.15;28.23;;;;;;;;;;10093122;28;20077;-63
2024/01/19 03:39:02;;;;;;;33.28;27.25;;;;;;;;;;10092489;28;20497;-63
2024/01/19 03:44:02;;;;;;;31.83;25.92;;;;;;;;;;10091890;28;20078;-63
2024/01/19 03:49:00;;;;;;;30.25;23.00;;;;;;;;;;10093060;28;20087;-63
2024/01/19 03:53:58;;;;;;;24.15;20.83;;;;;;;;;;10091719;28;20467;-63
2024/01/19 03:58:56;;;;;;;41.58;31.60;;;;;;;;;;10091199;28;20109;-64
2024/01/19 04:03:56;;;;;;;31.77;23.67;;;;;;;;;;10092758;28;20078;-63
2024/01/19 04:08:54;;;;;;;227.65;142.02;;;;;;;;;;10086639;28;20071;-64
2024/01/19 04:13:53;;;;;;;162.18;93.53;;;;;;;;;;10088365;28;20071;-63
2024/01/19 04:18:51;;;;;;;243.27;144.15;;;;;;;;;;10091567;28;20090;-62
2024/01/19 04:23:51;;;;;;;136.02;80.95;;;;;;;;;;10092338;28;20074;-63
2024/01/19 04:28:49;;;;;;;124.35;76.32;;;;;;;;;;10091069;28;20074;-63
2024/01/19 04:33:47;;;;;;;83.85;56.00;;;;;;;;;;10091265;28;20082;-63
2024/01/19 04:38:49;;;;;;;49.35;37.88;;;;;;;;;;10102998;28;20078;-63
2024/01/19 04:43:48;;;;;;;50.45;40.60;;;;;;;;;;10092636;28;20078;-63
2024/01/19 04:48:47;;;;;;;44.92;37.28;;;;;;;;;;10094573;28;20078;-63
2024/01/19 04:53:45;;;;;;;30.63;24.05;;;;;;;;;;10093641;28;20067;-63
2024/01/19 04:58:43;;;;;;;55.05;41.17;;;;;;;;;;10090855;28;20086;-63
2024/01/19 05:03:43;;;;;;;66.57;50.00;;;;;;;;;;10096294;28;20070;-63
2024/01/19 05:08:41;;;;;;;67.78;47.33;;;;;;;;;;10100241;28;20082;-64
2024/01/19 05:13:39;;;;;;;34.40;26.80;;;;;;;;;;10094311;28;20089;-63
2024/01/19 05:18:38;;;;;;;29.30;23.40;;;;;;;;;;10090427;28;20529;-63
2024/01/19 05:23:38;;;;;;;35.50;27.15;;;;;;;;;;10103302;28;20543;-62
2024/01/19 05:28:36;;;;;;;29.42;23.70;;;;;;;;;;10102319;28;20055;-63
2024/01/19 05:33:35;;;;;;;21.50;18.13;;;;;;;;;;10096547;28;20077;-63
2024/01/19 05:38:38;;;;;;;23.08;19.42;;;;;;;;;;10097810;28;20082;-63
2024/01/19 05:43:36;;;;;;;27.10;20.42;;;;;;;;;;10097134;28;20074;-64
2024/01/19 05:48:34;;;;;;;37.67;29.75;;;;;;;;;;10094966;28;20085;-63
2024/01/19 05:53:33;;;;;;;62.30;45.58;;;;;;;;;;10097785;28;20067;-63
2024/01/19 05:58:32;;;;;;;63.58;46.80;;;;;;;;;;10095361;28;20097;-62
2024/01/19 06:03:33;;;;;;;34.65;25.30;;;;;;;;;;10110673;28;20533;-63
2024/01/19 06:08:32;;;;;;;23.20;20.50;;;;;;;;;;10108319;28;20696;-64
2024/01/19 06:13:30;;;;;;;45.05;40.17;;;;;;;;;;10101489;28;20134;-64
2024/01/19 06:18:29;;;;;;;28.40;24.67;;;;;;;;;;10099418;28;20082;-63
2024/01/19 06:23:28;;;;;;;26.17;23.45;;;;;;;;;;10099083;28;20654;-61
2024/01/19 06:28:26;;;;;;;25.13;22.45;;;;;;;;;;10097639;28;20504;-62
2024/01/19 06:33:25;;;;;;;23.00;20.35;;;;;;;;;;10093826;28;20551;-62
2024/01/19 06:38:24;;;;;;;84.35;56.33;;;;;;;;;;10096330;28;20070;-63
2024/01/19 06:43:22;;;;;;;35.42;26.30;;;;;;;;;;10095717;28;20487;-63
2024/01/19 06:48:21;;;;;;;33.35;25.45;;;;;;;;;;10095578;28;20079;-63
2024/01/19 06:53:19;;;;;;;26.83;22.52;;;;;;;;;;10098970;28;20086;-64
2024/01/19 06:58:19;;;;;;;25.05;20.38;;;;;;;;;;10095963;28;20489;-66
2024/01/19 07:03:17;;;;;;;28.05;23.73;;;;;;;;;;10100027;28;20081;-63
2024/01/19 07:08:15;;;;;;;28.77;24.00;;;;;;;;;;10099158;28;20519;-63
2024/01/19 07:13:14;;;;;;;20.77;17.55;;;;;;;;;;10101061;28;20460;-64
2024/01/19 07:18:13;;;;;;;17.55;15.75;;;;;;;;;;10095071;28;20091;-64
2024/01/19 07:23:12;;;;;;;20.00;18.00;;;;;;;;;;10098216;28;20114;-64
2024/01/19 07:28:10;;;;;;;21.80;17.83;;;;;;;;;;10090023;28;20066;-64
2024/01/19 07:33:08;;;;;;;22.15;17.30;;;;;;;;;;10090485;28;20080;-64
2024/01/19 07:38:17;;;;;;;39.58;22.98;;;;;;;;;;10089127;28;20071;-64
2024/01/19 07:43:16;;;;;;;68.40;55.05;;;;;;;;;;10095225;28;20082;-65
2024/01/19 07:48:15;;;;;;;69.93;54.30;;;;;;;;;;10095398;28;20066;-64
2024/01/19 07:53:13;;;;;;;57.17;51.22;;;;;;;;;;10093887;28;20848;-65
2024/01/19 07:58:13;;;;;;;46.88;36.53;;;;;;;;;;10094601;28;20070;-64
2024/01/19 08:03:11;;;;;;;48.55;40.13;;;;;;;;;;10091422;28;20069;-65
2024/01/19 08:08:10;;;;;;;57.17;46.92;;;;;;;;;;10095792;28;20086;-63
2024/01/19 08:13:08;;;;;;;63.40;51.70;;;;;;;;;;10094757;28;20070;-64
2024/01/19 08:18:07;;;;;;;56.67;48.97;;;;;;;;;;10097081;28;20086;-64
2024/01/19 08:23:06;;;;;;;58.20;50.00;;;;;;;;;;10095863;28;20075;-64
2024/01/19 08:28:04;;;;;;;55.78;48.45;;;;;;;;;;10094173;28;20508;-64
2024/01/19 08:33:02;;;;;;;60.28;40.20;;;;;;;;;;10091279;28;20066;-64
2024/01/19 08:38:03;;;;;;;26.58;23.05;;;;;;;;;;10095359;28;20094;-64
2024/01/19 08:43:01;;;;;;;38.30;30.15;;;;;;;;;;10101889;28;20476;-65
2024/01/19 08:48:02;;;;;;;34.47;26.67;;;;;;;;;;10105312;28;20078;-64
2024/01/19 08:53:02;;;;;;;27.83;23.27;;;;;;;;;;10098172;28;20789;-65
2024/01/19 08:58:01;;;;;;;28.00;22.35;;;;;;;;;;10105587;28;20093;-65
2024/01/19 09:02:59;;;;;;;22.73;18.83;;;;;;;;;;10097680;28;20066;-64
2024/01/19 09:08:03;;;;;;;29.05;19.40;;;;;;;;;;10101362;28;20066;-65
2024/01/19 09:13:01;;;;;;;17.05;15.25;;;;;;;;;;10098432;28;20063;-65
2024/01/19 09:17:59;;;;;;;25.05;20.48;;;;;;;;;;10098561;28;20102;-65
2024/01/19 09:22:57;;;;;;;23.45;18.58;;;;;;;;;;10101508;28;20062;-65
2024/01/19 09:27:58;;;;;;;18.85;16.83;;;;;;;;;;10098036;28;20082;-64
2024/01/19 09:32:56;;;;;;;26.17;20.13;;;;;;;;;;10100819;28;20491;-65
2024/01/19 09:37:55;;;;;;;22.35;18.42;;;;;;;;;;10094685;28;20066;-65
2024/01/19 09:42:55;;;;;;;19.17;12.30;;;;;;;;;;10098097;28;20086;-66
2024/01/19 09:48:00;;;;;;;22.05;16.50;;;;;;;;;;10095518;28;20067;-66
2024/01/19 09:52:59;;;;;;;30.58;21.02;;;;;;;;;;10095339;28;20067;-67
2024/01/19 09:57:57;;;;;;;39.40;28.55;;;;;;;;;;10095061;28;20077;-65
2024/01/19 10:02:57;;;;;;;20.65;18.45;;;;;;;;;;10094786;28;20078;-66
2024/01/19 10:07:59;;;;;;;22.35;16.67;;;;;;;;;;10098380;28;20066;-64
2024/01/19 10:12:57;;;;;;;31.42;22.30;;;;;;;;;;10093392;28;20493;-65
2024/01/19 10:17:57;;;;;;;31.80;25.13;;;;;;;;;;10095665;28;20568;-65
2024/01/19 10:22:55;;;;;;;43.33;28.58;;;;;;;;;;10086968;28;20082;-65
2024/01/19 10:27:53;;;;;;;17.95;14.98;;;;;;;;;;10099859;28;20081;-65
2024/01/19 10:32:53;;;;;;;22.63;16.55;;;;;;;;;;10091039;28;20075;-65
2024/01/19 10:38:03;;;;;;;24.45;18.30;;;;;;;;;;10095561;28;20147;-65
2024/01/19 10:43:03;;;;;;;24.42;16.55;;;;;;;;;;10096678;28;20496;-66
2024/01/19 10:48:03;;;;;;;22.17;15.82;;;;;;;;;;10094298;28;20109;-65
2024/01/19 10:53:11;;;;;;;23.13;17.45;;;;;;;;;;10092383;28;20074;-65
2024/01/19 10:58:13;;;;;;;20.73;15.45;;;;;;;;;;10095513;28;20090;-65
2024/01/19 11:03:12;;;;;;;25.80;19.00;;;;;;;;;;10095168;28;20082;-65
2024/01/19 11:08:12;;;;;;;21.27;17.23;;;;;;;;;;10094469;28;20077;-65
2024/01/19 11:13:13;;;;;;;37.92;28.67;;;;;;;;;;10093787;28;20504;-65
2024/01/19 11:18:11;;;;;;;23.10;18.67;;;;;;;;;;10093700;28;20091;-66
2024/01/19 11:23:10;;;;;;;26.65;18.98;;;;;;;;;;10095534;28;20819;-65
2024/01/19 11:28:16;;;;;;;23.05;19.92;;;;;;;;;;10093257;28;20062;-65
2024/01/19 11:33:17;;;;;;;21.70;19.23;;;;;;;;;;10099679;28;20082;-63
2024/01/19 11:38:34;;;;;;;27.73;22.00;;;;;;;;;;10090241;28;20101;-64
2024/01/19 11:43:41;;;;;;;29.05;23.50;;;;;;;;;;10098452;28;20294;-64
2024/01/19 11:48:41;;;;;;;23.83;18.42;;;;;;;;;;10093263;28;20083;-64
2024/01/19 11:53:55;;;;;;;26.23;21.80;;;;;;;;;;10093355;28;20081;-64
2024/01/19 11:58:55;;;;;;;21.58;16.90;;;;;;;;;;10091754;28;20086;-65
2024/01/19 12:03:54;;;;;;;19.83;16.85;;;;;;;;;;10091737;28;20074;-65
2024/01/19 12:08:59;;;;;;;22.58;19.02;;;;;;;;;;10094914;28;20073;-65
2024/01/19 12:14:03;;;;;;;22.95;19.65;;;;;;;;;;10100124;28;20079;-65
2024/01/19 12:19:04;;;;;;;23.25;19.17;;;;;;;;;;10099293;28;20089;-64
2024/01/19 12:24:03;;;;;;;23.50;19.80;;;;;;;;;;10089641;28;20078;-64
2024/01/19 12:29:04;;;;;;;19.38;15.52;;;;;;;;;;10096646;28;20062;-64
2024/01/19 12:34:10;;;;;;;20.63;15.18;;;;;;;;;;10092715;28;20070;-64
2024/01/19 12:39:13;;;;;;;19.45;16.05;;;;;;;;;;10095873;28;20154;-64
2024/01/19 12:44:14;;;;;;;35.80;25.65;;;;;;;;;;10101402;28;20063;-64
2024/01/19 12:49:14;;;;;;;32.17;26.25;;;;;;;;;;10103848;28;20055;-65
2024/01/19 12:54:15;;;;;;;31.10;24.63;;;;;;;;;;10109125;28;20078;-65
2024/01/19 12:59:19;;;;;;;21.50;16.67;;;;;;;;;;10103794;28;20066;-65
2024/01/19 13:04:17;;;;;;;15.93;14.13;;;;;;;;;;10104046;28;20550;-64
2024/01/19 13:09:17;;;;;;;21.63;17.75;;;;;;;;;;10106203;28;20318;-63
2024/01/19 13:14:16;;;;;;;23.42;18.27;;;;;;;;;;10099297;28;20074;-63
2024/01/19 13:19:15;;;;;;;30.05;20.77;;;;;;;;;;10099760;28;20539;-63
2024/01/19 13:24:13;;;;;;;19.17;15.40;;;;;;;;;;10095624;28;20083;-63
2024/01/19 13:29:11;;;;;;;19.63;14.05;;;;;;;;;;10097241;28;20538;-63
2024/01/19 13:34:11;;;;;;;13.68;11.02;;;;;;;;;;10097233;28;20079;-64
2024/01/19 13:39:09;;;;;;;11.65;10.40;;;;;;;;;;10099215;28;20074;-64
2024/01/19 13:44:08;;;;;;;14.73;12.05;;;;;;;;;;10096614;28;20093;-64
2024/01/19 13:49:06;;;;;;;24.52;14.80;;;;;;;;;;10097299;28;20472;-63
2024/01/19 13:54:07;;;;;;;21.27;16.30;;;;;;;;;;10096304;28;20500;-63
2024/01/19 13:59:05;;;;;;;19.45;16.45;;;;;;;;;;10093162;28;20089;-63
2024/01/19 14:04:04;;;;;;;20.05;17.90;;;;;;;;;;10097718;28;20077;-64
2024/01/19 14:09:04;;;;;;;21.92;14.27;;;;;;;;;;10098975;28;20517;-63
2024/01/19 14:14:04;;;;;;;20.17;17.13;;;;;;;;;;10097698;28;20102;-63
2024/01/19 14:19:04;;;;;;;17.85;14.65;;;;;;;;;;10098375;28;20113;-63
2024/01/19 14:24:02;;;;;;;17.70;14.45;;;;;;;;;;10094958;28;20078;-64
2024/01/19 14:29:02;;;;;;;18.77;15.52;;;;;;;;;;10095321;28;20062;-64
2024/01/19 14:34:01;;;;;;;18.83;14.75;;;;;;;;;;10098094;28;20070;-62
2024/01/19 14:39:00;;;;;;;34.50;29.73;;;;;;;;;;10095993;28;20066;-62
2024/01/19 14:43:58;;;;;;;41.42;29.90;;;;;;;;;;10093324;28;20086;-63
2024/01/19 14:48:58;;;;;;;28.52;20.48;;;;;;;;;;10094554;28;20497;-63
2024/01/19 14:53:57;;;;;;;60.03;45.20;;;;;;;;;;10088783;28;20085;-63
2024/01/19 14:58:59;;;;;;;117.75;98.55;;;;;;;;;;10091079;28;20062;-62
2024/01/19 15:03:57;;;;;;;51.58;44.45;;;;;;;;;;10095423;28;20109;-64
2024/01/19 15:08:57;;;;;;;19.90;17.85;;;;;;;;;;10095733;28;20075;-62
2024/01/19 15:13:55;;;;;;;21.20;15.32;;;;;;;;;;10095544;28;20089;-63
2024/01/19 15:18:53;;;;;;;14.48;10.77;;;;;;;;;;10094819;28;20077;-64
2024/01/19 15:23:51;;;;;;;28.92;17.77;;;;;;;;;;10095795;28;20062;-64
2024/01/19 15:28:51;;;;;;;15.40;12.07;;;;;;;;;;10089604;28;20074;-64
2024/01/19 15:33:49;;;;;;;19.50;17.35;;;;;;;;;;10094745;28;20081;-63
2024/01/19 15:38:48;;;;;;;13.30;11.05;;;;;;;;;;10093623;28;20516;-63
2024/01/19 15:43:46;;;;;;;13.18;10.88;;;;;;;;;;10094493;28;20503;-63
2024/01/19 15:48:46;;;;;;;13.93;10.00;;;;;;;;;;10095591;28;20485;-63
2024/01/19 15:53:56;;;;;;;16.55;11.43;;;;;;;;;;10098017;28;20074;-61
2024/01/19 15:58:54;;;;;;;13.85;10.13;;;;;;;;;;10087000;28;20067;-63
2024/01/19 16:03:54;;;;;;;22.48;14.30;;;;;;;;;;10098455;28;20077;-63
2024/01/19 16:08:55;;;;;;;37.72;25.52;;;;;;;;;;10095662;28;20079;-63
2024/01/19 16:13:54;;;;;;;34.03;22.17;;;;;;;;;;10095882;28;20058;-63
2024/01/19 16:18:54;;;;;;;46.38;28.60;;;;;;;;;;10096195;28;20362;-62
2024/01/19 16:23:52;;;;;;;77.47;51.30;;;;;;;;;;10100093;28;20075;-62
2024/01/19 16:28:51;;;;;;;66.20;44.35;;;;;;;;;;10093057;28;20102;-63
2024/01/19 16:33:50;;;;;;;84.25;53.22;;;;;;;;;;10090896;28;20598;-63
2024/01/19 16:38:49;;;;;;;74.07;46.35;;;;;;;;;;10093275;28;20374;-62
2024/01/19 16:43:48;;;;;;;49.30;34.42;;;;;;;;;;10090020;28;20067;-62
2024/01/19 16:48:47;;;;;;;35.10;20.58;;;;;;;;;;10087891;28;20501;-61
2024/01/19 16:53:45;;;;;;;30.88;21.02;;;;;;;;;;10089149;28;20071;-62
2024/01/19 16:58:44;;;;;;;19.83;16.40;;;;;;;;;;10091778;28;20066;-62
2024/01/19 17:03:44;;;;;;;26.48;19.15;;;;;;;;;;10103661;28;20085;-62
2024/01/19 17:08:43;;;;;;;22.58;15.90;;;;;;;;;;10096182;28;20460;-61
2024/01/19 17:13:41;;;;;;;21.60;17.70;;;;;;;;;;10098552;28;20078;-62
2024/01/19 17:18:41;;;;;;;35.03;23.77;;;;;;;;;;10102269;28;20126;-63
2024/01/19 17:23:40;;;;;;;30.05;21.15;;;;;;;;;;10100906;28;20085;-63
2024/01/19 17:28:42;;;;;;;26.40;21.33;;;;;;;;;;10098750;28;20160;-63
2024/01/19 17:33:42;;;;;;;29.70;23.52;;;;;;;;;;10101327;28;20078;-61
2024/01/19 17:38:57;;;;;;;31.58;26.90;;;;;;;;;;10095333;28;20082;-63
2024/01/19 17:43:56;;;;;;;31.98;24.95;;;;;;;;;;10105126;28;20465;-62
2024/01/19 17:48:55;;;;;;;30.33;23.83;;;;;;;;;;10099193;28;20073;-63
2024/01/19 17:53:54;;;;;;;37.10;28.75;;;;;;;;;;10098441;28;20078;-62
2024/01/19 17:58:52;;;;;;;41.05;33.13;;;;;;;;;;10095107;28;20079;-62
2024/01/19 18:03:50;;;;;;;46.70;39.67;;;;;;;;;;10096299;28;20086;-62
2024/01/19 18:08:50;;;;;;;47.53;39.10;;;;;;;;;;10094855;28;20078;-63
2024/01/19 18:13:49;;;;;;;46.67;41.42;;;;;;;;;;10096586;28;20078;-62
2024/01/19 18:18:47;;;;;;;47.28;42.13;;;;;;;;;;10094133;28;20089;-62
2024/01/19 18:23:47;;;;;;;46.78;41.70;;;;;;;;;;10097008;28;20066;-62
2024/01/19 18:28:48;;;;;;;50.53;41.40;;;;;;;;;;10097424;28;20066;-63
2024/01/19 18:33:46;;;;;;;37.25;33.20;;;;;;;;;;10099487;28;20074;-61
2024/01/19 18:38:45;;;;;;;30.13;26.35;;;;;;;;;;10096612;28;20285;-62
2024/01/19 18:43:43;;;;;;;29.50;25.02;;;;;;;;;;10096046;28;20102;-63
2024/01/19 18:48:43;;;;;;;26.23;22.60;;;;;;;;;;10095704;28;20534;-62
2024/01/19 18:53:43;;;;;;;28.35;24.48;;;;;;;;;;10095142;28;20166;-62
2024/01/19 18:58:41;;;;;;;27.88;24.10;;;;;;;;;;10097053;28;20075;-62
2024/01/19 19:03:40;;;;;;;21.30;19.05;;;;;;;;;;10092433;28;20109;-62
2024/01/19 19:08:39;;;;;;;19.00;15.82;;;;;;;;;;10096452;28;20066;-61
2024/01/19 19:13:38;;;;;;;28.23;22.63;;;;;;;;;;10086741;28;20085;-62
2024/01/19 19:18:37;;;;;;;25.67;18.30;;;;;;;;;;10094073;28;20078;-61
2024/01/19 19:23:36;;;;;;;17.25;14.63;;;;;;;;;;10095813;28;20085;-62
2024/01/19 19:28:35;;;;;;;26.80;19.48;;;;;;;;;;10096323;28;20074;-61
2024/01/19 19:33:34;;;;;;;21.20;16.25;;;;;;;;;;10098890;28;20070;-62
2024/01/19 19:38:32;;;;;;;15.52;13.75;;;;;;;;;;10097109;28;20078;-62
2024/01/19 19:43:30;;;;;;;31.30;19.58;;;;;;;;;;10095602;28;20495;-62
2024/01/19 19:48:30;;;;;;;26.98;17.73;;;;;;;;;;10095024;28;20509;-62
2024/01/19 19:53:28;;;;;;;31.08;18.58;;;;;;;;;;10095611;28;20093;-61
2024/01/19 19:58:27;;;;;;;22.80;15.57;;;;;;;;;;10093589;28;20521;-61
2024/01/19 20:03:25;;;;;;;13.07;11.68;;;;;;;;;;10094509;28;20079;-61
2024/01/19 20:08:25;;;;;;;11.75;10.27;;;;;;;;;;10092694;28;20063;-60
2024/01/19 20:13:23;;;;;;;12.25;10.13;;;;;;;;;;10095635;28;20079;-60
2024/01/19 20:18:21;;;;;;;14.38;11.57;;;;;;;;;;10094923;28;20086;-60
2024/01/19 20:23:20;;;;;;;12.70;11.40;;;;;;;;;;10091644;28;20101;-61
2024/01/19 20:28:19;;;;;;;14.38;11.45;;;;;;;;;;10092102;28;20067;-61
2024/01/19 20:33:18;;;;;;;16.92;13.32;;;;;;;;;;10096411;28;20067;-60
2024/01/19 20:38:16;;;;;;;19.50;13.60;;;;;;;;;;10096851;28;20066;-61
2024/01/19 20:43:15;;;;;;;13.93;11.10;;;;;;;;;;10101165;28;20523;-61
2024/01/19 20:48:14;;;;;;;22.83;18.58;;;;;;;;;;10099540;28;20071;-61
2024/01/19 20:53:13;;;;;;;18.55;15.38;;;;;;;;;;10099257;28;20063;-61
2024/01/19 20:58:11;;;;;;;15.82;12.63;;;;;;;;;;10099705;28;20063;-61
2024/01/19 21:03:10;;;;;;;13.05;11.70;;;;;;;;;;10098678;28;20079;-61
2024/01/19 21:08:10;;;;;;;14.02;12.55;;;;;;;;;;10095899;28;20071;-60
2024/01/19 21:13:08;;;;;;;15.15;13.57;;;;;;;;;;10097741;28;20086;-60
2024/01/19 21:18:07;;;;;;;16.77;12.70;;;;;;;;;;10100760;28;20082;-61
2024/01/19 21:23:06;;;;;;;13.57;12.18;;;;;;;;;;10096799;28;20525;-60
2024/01/19 21:28:06;;;;;;;15.38;13.40;;;;;;;;;;10097708;28;20073;-61
2024/01/19 21:33:04;;;;;;;12.48;10.85;;;;;;;;;;10099014;28;20495;-61
2024/01/19 21:38:02;;;;;;;13.68;12.38;;;;;;;;;;10098032;28;20082;-60
2024/01/19 21:43:01;;;;;;;12.73;11.48;;;;;;;;;;10096062;28;20090;-61
2024/01/19 21:48:01;;;;;;;13.90;12.43;;;;;;;;;;10096042;28;20063;-62
2024/01/19 21:53:00;;;;;;;13.60;12.18;;;;;;;;;;10096321;28;20102;-60
2024/01/19 21:57:59;;;;;;;15.40;13.90;;;;;;;;;;10096401;28;20075;-60
2024/01/19 22:02:57;;;;;;;13.38;11.13;;;;;;;;;;10096985;28;20077;-61
2024/01/19 22:07:57;;;;;;;13.65;12.18;;;;;;;;;;10097038;28;20079;-61
2024/01/19 22:12:55;;;;;;;12.85;11.55;;;;;;;;;;10096949;28;20080;-62
2024/01/19 22:17:53;;;;;;;14.85;11.32;;;;;;;;;;10096831;28;20082;-62
2024/01/19 22:22:52;;;;;;;39.10;26.05;;;;;;;;;;10093644;28;20086;-62
2024/01/19 22:27:51;;;;;;;13.90;11.23;;;;;;;;;;10096963;28;20075;-62
2024/01/19 22:32:50;;;;;;;11.82;10.65;;;;;;;;;;10095966;28;20066;-62
2024/01/19 22:37:48;;;;;;;12.52;11.23;;;;;;;;;;10092990;28;20074;-61
2024/01/19 22:42:47;;;;;;;12.07;10.77;;;;;;;;;;10092717;28;20082;-61
2024/01/19 22:47:48;;;;;;;14.88;12.25;;;;;;;;;;10095333;28;20074;-61
2024/01/19 22:52:46;;;;;;;15.02;10.38;;;;;;;;;;10098030;28;20491;-62
2024/01/19 22:57:45;;;;;;;9.95;8.73;;;;;;;;;;10094109;28;20097;-63
2024/01/19 23:02:43;;;;;;;12.68;9.23;;;;;;;;;;10094323;28;20094;-62
2024/01/19 23:07:45;;;;;;;19.33;13.85;;;;;;;;;;10096825;28;20478;-62
2024/01/19 23:12:43;;;;;;;7.60;6.80;;;;;;;;;;10094820;28;20089;-61
2024/01/19 23:17:41;;;;;;;8.73;7.82;;;;;;;;;;10095534;28;20083;-62
2024/01/19 23:22:40;;;;;;;9.50;8.52;;;;;;;;;;10093978;28;20078;-63
2024/01/19 23:27:39;;;;;;;8.85;7.13;;;;;;;;;;10096175;28;20090;-64
2024/01/19 23:32:38;;;;;;;7.97;7.18;;;;;;;;;;10090748;28;20070;-62
2024/01/19 23:37:36;;;;;;;9.38;8.07;;;;;;;;;;10094134;28;20079;-62
2024/01/19 23:42:34;;;;;;;13.02;7.70;;;;;;;;;;10091961;28;20074;-62
2024/01/19 23:47:34;;;;;;;8.75;7.85;;;;;;;;;;10093187;28;20101;-62
2024/01/19 23:52:33;;;;;;;8.15;7.30;;;;;;;;;;10091896;28;20079;-62
2024/01/19 23:57:31;;;;;;;11.38;9.32;;;;;;;;;;10092311;28;20079;-62
